Informes METAR cercanos


LEVC - Manises, Valencia, ESPAÑA
Distance from station: NNE 72km
Actualización: 15/11/2018 03:00
Lluvia hoy, Muy nuboso
Lluvia hoy, Muy nuboso
 Viento del N
Viento: N 7 km/h
Temperatura: 16°C
Rocío: 15°C
Humedad: 94%
Barómetro: 1019 hPa
Resumen: Lluvia hoy
Clouds: Muy nuboso
Visibility: 10 km
Cloud details: Parcialmente nuboso 610 m
Muy nuboso 1067 m
2018/11/15 02:00 LEVC 150200Z 35004KT 9999 RA SCT020 BKN035 16/15 Q1019 TEMPO 4000 SHRA FEW015CB
LEAL - El Altet, Alicante, ESPAÑA
Distance from station: S 70km
Actualización: 15/11/2018 03:00
Parcialmente nuboso
Parcialmente nuboso
 Viento del ENE
Viento: ENE 22 km/h
Temperatura: 18°C
Rocío: 15°C
Humedad: 83%
Barómetro: 1016 hPa
Clouds: Parcialmente nuboso
Visibility: 10 km
Cloud details: Algunas nubes 579 m
Parcialmente nuboso 1646 m
2018/11/15 02:00 LEAL 150200Z 07012KT 9999 FEW019 SCT054 18/15 Q1016 TEMPO 4000 TSRA FEW030CB
 
LELC - San Javier, Murcia, ESPAÑA
Distance from station: SSO 188km
Actualización: 15/11/2018 03:00
Nearby thunderstorm, Lluvia débil, Showers, Thunderstorm
Nearby thunderstorm, Lluvia débil, Showers, Thunderstorm
 Viento del NE
Viento: NE 33 km/h
Temperatura: 18°C
Rocío: 17°C
Humedad: 94%
Barómetro: 1015 hPa
Resumen: Nearby thunderstorm, Lluvia débil, Showers
Clouds: Thunderstorm
Visibility: 7 km
Cloud details: Muy nuboso 305 m
2018/11/15 02:00 LELC 150200Z AUTO 05018KT 020V080 7000 VCTS -SHRA BKN010 ///CB 18/17 Q1015
LEAB - Los Llanos, Albacete, ESPAÑA
Distance from station: O 143km
Actualización: 15/11/2018 03:00
Muy nuboso
Muy nuboso
 Viento del NE
Viento: NE 6 km/h
Temperatura: 11°C
Rocío: 10°C
Humedad: 94%
Barómetro: 1018 hPa
Clouds: Muy nuboso
Visibility: 10 km
Cloud details: Muy nuboso 427 m
Muy nuboso 1402 m
2018/11/15 02:00 LEAB 150200Z 05003KT 9999 BKN014 BKN046 11/10 Q1018 NOSIG